Time;durP1;ratioP1;P1;durP2;ratioP2;P2;SDS_P1;SDS_P2;PMS_P1;PMS_P2;Temp;Humidity;BMP_temperature;BMP_pressure;BME280_temperature;BME280_humidity;BME280_pressure;Samples;Min_cycle;Max_cycle;Signal;HPM_P1;HPM_P2
2023/12/09 00:00:56;;;;;;;477.35;265.83;;;;;;;3.03;100.00;97783.00;5021449;28;20029;-52
2023/12/09 00:03:21;;;;;;;530.63;266.88;;;;;;;2.97;100.00;97792.31;5022861;28;20109;-53
2023/12/09 00:05:46;;;;;;;416.40;262.55;;;;;;;3.08;100.00;97782.28;5023215;28;20041;-54
2023/12/09 00:08:12;;;;;;;459.42;265.10;;;;;;;3.01;100.00;97777.00;5022773;28;20452;-54
2023/12/09 00:10:37;;;;;;;465.38;267.63;;;;;;;2.99;100.00;97777.81;5021112;28;20061;-55
2023/12/09 00:13:03;;;;;;;436.52;263.92;;;;;;;3.01;100.00;97774.41;5023945;28;20095;-53
2023/12/09 00:15:28;;;;;;;583.63;273.90;;;;;;;3.04;100.00;97771.94;5021951;28;20037;-53
2023/12/09 00:17:53;;;;;;;435.00;264.85;;;;;;;3.00;100.00;97768.41;5023803;28;20017;-53
2023/12/09 00:20:19;;;;;;;570.58;276.45;;;;;;;3.00;100.00;97773.53;5019962;28;20456;-53
2023/12/09 00:22:44;;;;;;;485.67;272.25;;;;;;;3.02;100.00;97773.56;5023139;28;20061;-55
2023/12/09 00:25:09;;;;;;;435.30;262.65;;;;;;;2.84;100.00;97778.34;5022641;28;20017;-55
2023/12/09 00:27:35;;;;;;;421.52;262.58;;;;;;;2.96;100.00;97775.19;5022355;28;20330;-54
2023/12/09 00:30:00;;;;;;;444.80;264.20;;;;;;;2.98;100.00;97776.06;5023322;28;20444;-55
2023/12/09 00:32:25;;;;;;;568.67;274.20;;;;;;;3.00;100.00;97765.81;5022464;28;20452;-54
2023/12/09 00:34:51;;;;;;;439.25;261.88;;;;;;;2.92;100.00;97768.22;5023731;28;20444;-54
2023/12/09 00:37:16;;;;;;;539.05;269.90;;;;;;;2.93;100.00;97774.25;5020506;28;20500;-54
2023/12/09 00:39:41;;;;;;;425.35;264.30;;;;;;;2.93;100.00;97771.69;5021199;28;20055;-54
2023/12/09 00:42:07;;;;;;;453.98;268.10;;;;;;;2.80;100.00;97765.34;5023392;28;20030;-53
2023/12/09 00:44:32;;;;;;;584.90;274.58;;;;;;;2.71;100.00;97761.75;5022594;28;20032;-54
2023/12/09 00:46:57;;;;;;;417.38;260.08;;;;;;;2.79;100.00;97766.19;5022492;28;20450;-54
2023/12/09 00:49:23;;;;;;;468.67;262.10;;;;;;;2.89;100.00;97765.56;5020183;28;20485;-54
2023/12/09 00:51:48;;;;;;;466.98;263.33;;;;;;;2.90;100.00;97764.78;5021473;28;20096;-54
2023/12/09 00:54:14;;;;;;;435.50;268.73;;;;;;;2.95;100.00;97770.00;5022601;28;20021;-56
2023/12/09 00:56:39;;;;;;;465.13;268.70;;;;;;;3.02;100.00;97765.88;5018460;28;20056;-55
2023/12/09 00:59:05;;;;;;;539.55;271.33;;;;;;;3.08;100.00;97764.31;5021949;28;20044;-54
2023/12/09 01:01:33;;;;;;;547.45;275.48;;;;;;;3.01;100.00;97780.44;5020793;28;20044;-55
2023/12/09 01:03:58;;;;;;;463.70;266.50;;;;;;;3.04;100.00;97772.78;5021414;28;20041;-55
2023/12/09 01:06:24;;;;;;;566.60;267.80;;;;;;;3.20;100.00;97779.13;5019901;28;20123;-55
2023/12/09 01:08:49;;;;;;;474.25;259.40;;;;;;;3.06;100.00;97783.97;5022023;28;20041;-55
2023/12/09 01:11:14;;;;;;;466.13;256.55;;;;;;;3.14;100.00;97802.13;5020756;28;20075;-53
2023/12/09 01:13:40;;;;;;;480.27;260.00;;;;;;;3.05;100.00;97800.22;5020433;28;20136;-54
2023/12/09 01:16:07;;;;;;;446.27;256.42;;;;;;;2.99;100.00;97798.38;5020896;28;20041;-55
2023/12/09 01:18:32;;;;;;;507.83;261.05;;;;;;;3.06;100.00;97808.78;5020066;28;20045;-55
2023/12/09 01:20:57;;;;;;;502.50;261.10;;;;;;;3.07;100.00;97805.38;5019290;28;20052;-56
2023/12/09 01:23:23;;;;;;;495.45;264.08;;;;;;;3.05;100.00;97810.50;5021089;28;20090;-54
2023/12/09 01:25:48;;;;;;;479.13;266.85;;;;;;;2.95;100.00;97806.84;5021045;28;20042;-54
2023/12/09 01:28:13;;;;;;;483.98;261.10;;;;;;;2.99;100.00;97807.78;5021593;28;20025;-54
2023/12/09 01:30:38;;;;;;;429.65;260.15;;;;;;;2.91;100.00;97802.47;5019135;28;20456;-54
2023/12/09 01:33:04;;;;;;;467.77;261.70;;;;;;;2.90;100.00;97803.31;5022341;28;20443;-56
2023/12/09 01:35:29;;;;;;;597.80;263.35;;;;;;;2.95;100.00;97806.84;5020213;28;20518;-56
2023/12/09 01:37:54;;;;;;;466.77;258.83;;;;;;;2.91;100.00;97805.03;5022293;28;20495;-54
2023/12/09 01:40:21;;;;;;;465.98;256.45;;;;;;;2.83;100.00;97809.13;5018842;28;20032;-54
2023/12/09 01:42:46;;;;;;;472.70;259.42;;;;;;;2.94;100.00;97812.78;5020467;28;20032;-53
2023/12/09 01:45:11;;;;;;;438.60;257.35;;;;;;;2.94;100.00;97806.81;5020975;28;20037;-55
2023/12/09 01:47:38;;;;;;;458.35;258.88;;;;;;;2.85;100.00;97810.00;5018750;28;20022;-55
2023/12/09 01:50:06;;;;;;;452.45;256.15;;;;;;;2.79;100.00;97809.88;5018997;28;20024;-54
2023/12/09 01:52:32;;;;;;;531.28;259.25;;;;;;;2.84;100.00;97810.84;5019112;28;20250;-55
2023/12/09 01:54:59;;;;;;;474.13;255.10;;;;;;;2.88;100.00;97812.66;5020418;28;20033;-56
2023/12/09 01:57:26;;;;;;;569.35;264.95;;;;;;;2.86;100.00;97806.63;5034413;28;20060;-54
2023/12/09 01:59:51;;;;;;;414.77;254.23;;;;;;;2.84;100.00;97803.13;5020657;28;20025;-54
2023/12/09 02:02:16;;;;;;;444.63;250.32;;;;;;;2.81;100.00;97813.31;5020080;28;20152;-56
2023/12/09 02:04:42;;;;;;;451.25;258.23;;;;;;;2.98;100.00;97811.19;5020319;28;20051;-55
2023/12/09 02:07:07;;;;;;;439.95;254.52;;;;;;;2.99;100.00;97810.34;5019730;28;20065;-53
2023/12/09 02:09:33;;;;;;;583.45;265.85;;;;;;;3.03;100.00;97809.59;5018234;28;20239;-55
2023/12/09 02:12:06;;;;;;;452.20;258.75;;;;;;;3.07;100.00;97807.94;5020878;28;20045;-56
2023/12/09 02:14:58;;;;;;;504.83;240.75;;;;;;;3.01;100.00;97815.53;5019489;28;20026;-55
2023/12/09 02:17:39;;;;;;;557.33;250.27;;;;;;;3.02;100.00;97812.13;5019254;28;20045;-53
2023/12/09 02:20:07;;;;;;;464.02;246.02;;;;;;;3.02;100.00;97814.69;5018718;28;20048;-56
2023/12/09 02:22:32;;;;;;;523.08;242.13;;;;;;;2.92;100.00;97821.28;5016540;28;20025;-55
2023/12/09 02:24:57;;;;;;;418.25;231.25;;;;;;;2.94;100.00;97817.94;5020689;28;20029;-54
2023/12/09 02:27:42;;;;;;;525.83;239.20;;;;;;;2.93;100.00;97823.91;5018437;28;20558;-54
2023/12/09 02:30:40;;;;;;;441.00;239.15;;;;;;;2.99;100.00;97818.06;5019137;28;20029;-55
2023/12/09 02:33:08;;;;;;;428.30;241.73;;;;;;;2.99;100.00;97818.06;5016253;28;20053;-55
2023/12/09 02:35:37;;;;;;;609.03;252.10;;;;;;;2.86;100.00;97822.03;5018643;28;20053;-55
2023/12/09 02:38:04;;;;;;;422.80;237.13;;;;;;;2.90;100.00;97822.97;5020465;28;20056;-55
2023/12/09 02:40:30;;;;;;;563.33;250.13;;;;;;;2.96;100.00;97826.56;5015973;28;20041;-53
2023/12/09 02:42:56;;;;;;;449.63;243.70;;;;;;;2.99;100.00;97829.22;5019480;28;20026;-54
2023/12/09 02:45:21;;;;;;;414.00;239.77;;;;;;;3.02;100.00;97832.69;5020671;28;20025;-54
2023/12/09 02:47:47;;;;;;;438.25;244.48;;;;;;;3.03;100.00;97830.16;5019387;28;20118;-55
2023/12/09 02:50:13;;;;;;;469.77;246.80;;;;;;;3.09;100.00;97829.44;5018495;28;20041;-54
2023/12/09 02:52:39;;;;;;;549.90;253.07;;;;;;;3.04;100.00;97825.88;5018900;28;20045;-54
2023/12/09 02:55:06;;;;;;;467.42;250.20;;;;;;;3.05;100.00;97832.75;5017749;28;20374;-54
2023/12/09 02:57:31;;;;;;;610.60;259.17;;;;;;;3.16;100.00;97828.75;5018102;28;20154;-55
2023/12/09 02:59:57;;;;;;;444.45;243.27;;;;;;;3.02;100.00;97840.38;5019136;28;20045;-55
2023/12/09 03:02:23;;;;;;;457.02;250.60;;;;;;;3.13;100.00;97841.53;5017683;28;20034;-53
2023/12/09 03:04:48;;;;;;;456.77;250.80;;;;;;;3.06;100.00;97843.06;5019699;28;20415;-55
2023/12/09 03:07:13;;;;;;;440.70;249.80;;;;;;;3.19;100.00;97848.50;5020003;28;20060;-54
2023/12/09 03:09:39;;;;;;;592.67;259.05;;;;;;;3.13;100.00;97856.94;5017617;28;20396;-56
2023/12/09 03:12:04;;;;;;;447.90;246.70;;;;;;;3.10;100.00;97851.72;5019129;28;20037;-56
2023/12/09 03:14:30;;;;;;;552.25;253.48;;;;;;;3.09;100.00;97850.00;5019306;28;20072;-54
2023/12/09 03:16:55;;;;;;;465.25;249.60;;;;;;;3.21;100.00;97847.72;5019435;28;20041;-55
2023/12/09 03:19:20;;;;;;;449.90;242.07;;;;;;;3.17;100.00;97851.03;5019119;28;20134;-54
2023/12/09 03:21:46;;;;;;;448.45;243.00;;;;;;;3.16;100.00;97853.56;5017766;28;20484;-54
2023/12/09 03:24:11;;;;;;;460.35;233.00;;;;;;;3.11;100.00;97838.03;5019955;28;20053;-57
2023/12/09 03:26:36;;;;;;;556.72;245.80;;;;;;;3.14;100.00;97848.41;5018203;28;20048;-56
2023/12/09 03:29:02;;;;;;;464.35;244.57;;;;;;;3.12;100.00;97850.91;5018407;28;20025;-55
2023/12/09 03:31:27;;;;;;;500.67;244.85;;;;;;;3.00;100.00;97842.91;5018154;28;20037;-55
2023/12/09 03:33:52;;;;;;;422.60;246.27;;;;;;;3.03;100.00;97839.53;5020010;28;20103;-54
2023/12/09 03:36:18;;;;;;;437.98;245.60;;;;;;;2.99;100.00;97839.50;5018670;28;20415;-54
2023/12/09 03:38:43;;;;;;;492.80;251.50;;;;;;;3.01;100.00;97852.38;5017032;28;20105;-56
2023/12/09 03:41:09;;;;;;;430.52;247.15;;;;;;;3.06;100.00;97840.50;5018248;28;20033;-55
2023/12/09 03:43:35;;;;;;;505.90;253.13;;;;;;;3.12;100.00;97844.94;5018849;28;20405;-54
2023/12/09 03:46:01;;;;;;;471.48;251.77;;;;;;;3.19;100.00;97846.78;5019315;28;20501;-57
2023/12/09 03:48:27;;;;;;;448.60;253.15;;;;;;;3.21;100.00;97840.00;5018759;28;20570;-53
2023/12/09 03:50:52;;;;;;;408.35;250.35;;;;;;;3.13;100.00;97836.38;5018246;28;20040;-56
2023/12/09 03:53:18;;;;;;;460.25;249.48;;;;;;;3.19;100.00;97833.09;5020095;28;20034;-56
2023/12/09 03:55:43;;;;;;;578.10;259.05;;;;;;;3.22;100.00;97822.88;5017052;28;20106;-55
2023/12/09 03:58:09;;;;;;;457.85;253.63;;;;;;;3.23;100.00;97833.19;5018343;28;20091;-55
2023/12/09 04:00:35;;;;;;;531.13;242.23;;;;;;;3.27;100.00;97829.00;5014440;28;20448;-55
2023/12/09 04:03:00;;;;;;;443.55;241.27;;;;;;;3.23;100.00;97822.91;5017562;28;20474;-54
2023/12/09 04:05:26;;;;;;;402.50;241.80;;;;;;;3.14;100.00;97822.69;5019687;28;20109;-56
2023/12/09 04:07:51;;;;;;;475.38;243.68;;;;;;;3.21;100.00;97816.00;5017904;28;20057;-54
2023/12/09 04:10:16;;;;;;;433.58;245.75;;;;;;;3.23;100.00;97811.78;5017972;28;20397;-54
2023/12/09 04:12:42;;;;;;;497.90;245.10;;;;;;;3.17;100.00;97814.19;5017389;28;20389;-55
2023/12/09 04:15:08;;;;;;;474.17;245.65;;;;;;;3.24;100.00;97809.22;5018031;28;20059;-56
2023/12/09 04:17:33;;;;;;;544.90;250.55;;;;;;;3.21;100.00;97810.84;5018271;28;20037;-55
2023/12/09 04:19:59;;;;;;;446.60;244.57;;;;;;;3.22;100.00;97815.16;5018308;28;20014;-55
2023/12/09 04:22:24;;;;;;;493.13;245.70;;;;;;;3.18;100.00;97814.22;5017768;28;20068;-54
2023/12/09 04:24:50;;;;;;;444.08;246.98;;;;;;;3.18;100.00;97803.94;5016522;28;20036;-55
2023/12/09 04:27:15;;;;;;;463.23;247.73;;;;;;;3.18;100.00;97798.81;5018694;28;20034;-56
2023/12/09 04:29:42;;;;;;;599.25;253.88;;;;;;;3.14;100.00;97802.13;5016269;28;20037;-55
2023/12/09 04:32:07;;;;;;;428.30;239.15;;;;;;;3.03;100.00;97801.00;5018758;28;20046;-56
2023/12/09 04:34:33;;;;;;;560.90;247.90;;;;;;;2.89;100.00;97805.84;5018133;28;20056;-56
2023/12/09 04:36:58;;;;;;;431.30;239.85;;;;;;;3.06;100.00;97799.41;5018973;28;20135;-54
2023/12/09 04:39:23;;;;;;;379.33;238.55;;;;;;;3.15;100.00;97797.88;5019774;28;20331;-53
2023/12/09 04:41:48;;;;;;;448.83;244.43;;;;;;;3.28;100.00;97805.03;5020886;28;20105;-57
2023/12/09 04:44:14;;;;;;;436.25;243.70;;;;;;;3.32;100.00;97793.09;5022876;28;20025;-55
2023/12/09 04:46:39;;;;;;;551.78;248.02;;;;;;;3.34;100.00;97800.00;5021390;28;20079;-54
2023/12/09 04:49:05;;;;;;;469.48;245.88;;;;;;;3.28;100.00;97802.47;5020513;28;20022;-55
2023/12/09 04:51:30;;;;;;;437.88;236.60;;;;;;;3.29;100.00;97804.19;5020824;28;20080;-54
2023/12/09 04:53:55;;;;;;;426.20;239.50;;;;;;;3.27;100.00;97813.59;5022470;28;20029;-54
2023/12/09 04:56:21;;;;;;;448.83;241.27;;;;;;;3.41;100.00;97808.72;5021102;28;20041;-54
2023/12/09 04:58:46;;;;;;;610.22;246.85;;;;;;;3.47;100.00;97808.88;5019077;28;20041;-54
2023/12/09 05:01:12;;;;;;;442.52;233.98;;;;;;;3.41;100.00;97806.16;5022216;28;20529;-55
2023/12/09 05:03:37;;;;;;;554.47;241.68;;;;;;;3.35;100.00;97812.03;5020518;28;20082;-54
2023/12/09 05:06:04;;;;;;;453.52;237.27;;;;;;;3.26;100.00;97804.09;5022014;28;20434;-55
2023/12/09 05:08:30;;;;;;;419.83;236.85;;;;;;;3.27;100.00;97805.00;5022326;28;20040;-55
2023/12/09 05:10:55;;;;;;;433.17;241.18;;;;;;;3.23;100.00;97804.91;5020509;28;20072;-54
2023/12/09 05:13:21;;;;;;;387.23;233.00;;;;;;;3.11;100.00;97807.19;5022028;28;20574;-56
2023/12/09 05:15:46;;;;;;;537.08;241.70;;;;;;;3.15;100.00;97793.59;5020054;28;20037;-55
2023/12/09 05:18:11;;;;;;;446.02;239.35;;;;;;;3.25;100.00;97797.25;5021241;28;20452;-55
2023/12/09 05:20:37;;;;;;;508.05;243.23;;;;;;;3.31;100.00;97797.41;5018811;28;20041;-56
2023/12/09 05:23:02;;;;;;;432.80;242.73;;;;;;;3.41;100.00;97795.03;5021625;28;20032;-54
2023/12/09 05:25:27;;;;;;;459.48;243.05;;;;;;;3.35;100.00;97788.88;5021592;28;20574;-56
2023/12/09 05:27:53;;;;;;;426.65;239.13;;;;;;;3.32;100.00;97796.56;5020307;28;20300;-58
2023/12/09 05:30:19;;;;;;;455.58;238.73;;;;;;;3.38;100.00;97794.09;5019016;28;20061;-56
2023/12/09 05:32:44;;;;;;;560.78;246.60;;;;;;;3.23;100.00;97802.34;5019183;28;20026;-55
2023/12/09 05:35:10;;;;;;;469.00;245.68;;;;;;;3.29;100.00;97806.75;5020879;28;20047;-56
2023/12/09 05:37:36;;;;;;;518.00;247.82;;;;;;;3.31;100.00;97805.09;5020478;28;20112;-56
2023/12/09 05:40:02;;;;;;;479.73;243.32;;;;;;;3.33;100.00;97802.53;5020402;28;20033;-55
2023/12/09 05:42:28;;;;;;;432.80;240.82;;;;;;;3.13;100.00;97810.69;5022024;28;20038;-55
2023/12/09 05:44:53;;;;;;;426.48;230.95;;;;;;;3.02;100.00;97800.16;5020209;28;20026;-58
2023/12/09 05:47:18;;;;;;;470.13;238.07;;;;;;;3.19;100.00;97805.66;5021266;28;20029;-55
2023/12/09 05:49:44;;;;;;;568.40;250.18;;;;;;;3.35;100.00;97811.19;5020299;28;20441;-54
2023/12/09 05:52:09;;;;;;;446.23;239.95;;;;;;;3.36;100.00;97807.75;5020104;28;20125;-55
2023/12/09 05:54:37;;;;;;;498.08;244.10;;;;;;;3.29;100.00;97801.63;5013048;28;20504;-56
2023/12/09 05:57:02;;;;;;;411.55;240.50;;;;;;;3.37;100.00;97797.50;5015037;28;20041;-57
2023/12/09 05:59:27;;;;;;;405.98;241.13;;;;;;;3.39;100.00;97805.28;5021141;28;20029;-56
2023/12/09 06:01:54;;;;;;;482.23;241.55;;;;;;;3.41;100.00;97818.16;5017411;28;20045;-56
2023/12/09 06:04:20;;;;;;;408.92;241.30;;;;;;;3.43;100.00;97813.91;5021281;28;20040;-56
2023/12/09 06:06:45;;;;;;;562.08;247.13;;;;;;;3.41;100.00;97821.59;5019988;28;20503;-54
2023/12/09 06:09:11;;;;;;;505.05;246.65;;;;;;;3.47;100.00;97816.59;5018843;28;20132;-56
2023/12/09 06:11:36;;;;;;;428.75;245.18;;;;;;;3.45;100.00;97807.97;5017599;28;20041;-55
2023/12/09 06:14:02;;;;;;;428.92;245.55;;;;;;;3.14;100.00;97812.41;5021960;28;20021;-55
2023/12/09 06:16:28;;;;;;;469.80;249.27;;;;;;;3.17;100.00;97809.03;5019919;28;20045;-55
2023/12/09 06:18:53;;;;;;;449.95;243.85;;;;;;;3.01;100.00;97810.38;5018826;28;21997;-56
2023/12/09 06:21:23;;;;;;;436.20;250.55;;;;;;;3.11;100.00;97820.91;5020553;28;20029;-55
2023/12/09 06:23:49;;;;;;;579.55;253.90;;;;;;;3.12;100.00;97812.38;5018699;28;20496;-57
2023/12/09 06:26:15;;;;;;;416.13;243.88;;;;;;;3.29;100.00;97809.31;5020943;28;20025;-54
2023/12/09 06:28:40;;;;;;;520.75;250.82;;;;;;;3.31;100.00;97811.94;5018328;28;20032;-55
2023/12/09 06:31:05;;;;;;;456.33;249.07;;;;;;;3.31;100.00;97812.81;5018958;28;20052;-56
2023/12/09 06:33:31;;;;;;;425.00;245.85;;;;;;;3.33;100.00;97818.84;5021215;28;20132;-55
2023/12/09 06:35:56;;;;;;;429.75;247.13;;;;;;;3.38;100.00;97824.97;5017933;28;20065;-55
2023/12/09 06:38:22;;;;;;;413.52;245.77;;;;;;;3.46;100.00;97829.41;5021027;28;20449;-55
2023/12/09 06:40:47;;;;;;;570.53;258.95;;;;;;;3.35;100.00;97822.31;5017443;28;20453;-55
2023/12/09 06:43:12;;;;;;;449.40;246.77;;;;;;;3.40;100.00;97817.28;5020391;28;20406;-56
2023/12/09 06:45:38;;;;;;;474.67;250.75;;;;;;;3.42;100.00;97807.03;5016561;28;20041;-56
2023/12/09 06:48:03;;;;;;;434.98;249.95;;;;;;;3.36;100.00;97813.78;5020168;28;20033;-56
2023/12/09 06:50:29;;;;;;;427.38;244.98;;;;;;;3.28;100.00;97810.16;5016879;28;20107;-57
2023/12/09 06:52:54;;;;;;;567.50;252.85;;;;;;;3.27;100.00;97807.56;5017151;28;20037;-56
2023/12/09 06:55:20;;;;;;;430.08;252.15;;;;;;;3.26;100.00;97801.53;5019819;28;20032;-56
2023/12/09 06:57:45;;;;;;;600.75;260.63;;;;;;;3.23;100.00;97807.47;5017489;28;20032;-57
2023/12/09 07:00:12;;;;;;;420.65;246.75;;;;;;;3.25;100.00;97813.53;5018779;28;20397;-57
2023/12/09 07:02:38;;;;;;;432.63;252.02;;;;;;;3.42;100.00;97814.75;5018295;28;20037;-54
2023/12/09 07:05:04;;;;;;;447.83;233.57;;;;;;;3.49;100.00;97809.78;5019135;28;20406;-54
2023/12/09 07:07:29;;;;;;;425.33;237.00;;;;;;;3.59;100.00;97805.69;5020061;28;20119;-55
2023/12/09 07:09:56;;;;;;;561.80;247.93;;;;;;;3.57;100.00;97809.97;5018133;28;20065;-54
2023/12/09 07:12:21;;;;;;;440.25;238.73;;;;;;;3.53;100.00;97808.16;5019921;28;20033;-55
2023/12/09 07:14:47;;;;;;;559.72;246.13;;;;;;;3.47;100.00;97816.59;5018796;28;20653;-56
2023/12/09 07:17:12;;;;;;;432.73;240.45;;;;;;;3.39;100.00;97805.28;5019398;28;20060;-55
2023/12/09 07:19:37;;;;;;;468.95;243.95;;;;;;;3.45;100.00;97804.53;5017656;28;20033;-55
2023/12/09 07:22:03;;;;;;;423.35;244.75;;;;;;;3.54;100.00;97807.31;5019726;28;20427;-55
2023/12/09 07:24:29;;;;;;;416.15;242.40;;;;;;;3.48;100.00;97812.31;5019997;28;20025;-55
2023/12/09 07:26:54;;;;;;;581.15;250.70;;;;;;;3.45;100.00;97812.25;5017754;28;20099;-55
2023/12/09 07:29:19;;;;;;;440.48;245.93;;;;;;;3.45;100.00;97822.53;5018823;28;20220;-56
2023/12/09 07:31:45;;;;;;;496.02;244.75;;;;;;;3.44;100.00;97818.22;5017658;28;20412;-54
2023/12/09 07:34:16;;;;;;;475.00;250.23;;;;;;;3.47;100.00;97813.16;5018753;28;20520;-54
2023/12/09 07:36:44;;;;;;;461.33;247.18;;;;;;;3.48;100.00;97802.00;5018379;28;20033;-54
2023/12/09 07:39:09;;;;;;;477.90;248.65;;;;;;;3.49;100.00;97801.22;5017470;28;20113;-56
2023/12/09 07:41:35;;;;;;;440.20;246.95;;;;;;;3.42;100.00;97800.22;5019439;28;20117;-53
2023/12/09 07:44:01;;;;;;;438.58;249.82;;;;;;;3.37;100.00;97797.50;5018686;28;20037;-55
2023/12/09 07:46:26;;;;;;;454.25;247.63;;;;;;;3.51;100.00;97796.94;5019128;28;20042;-53
2023/12/09 07:48:52;;;;;;;552.65;256.95;;;;;;;3.44;100.00;97789.94;5016123;28;20503;-55
2023/12/09 07:51:17;;;;;;;415.63;247.38;;;;;;;3.54;100.00;97789.31;5018769;28;20065;-54
2023/12/09 07:53:42;;;;;;;560.22;255.25;;;;;;;3.48;100.00;97787.47;5017891;28;20025;-56
2023/12/09 07:56:08;;;;;;;437.48;250.27;;;;;;;3.55;100.00;97777.28;5018771;28;20041;-55
2023/12/09 07:58:33;;;;;;;441.45;250.00;;;;;;;3.73;100.00;97774.25;5017950;28;20401;-55
2023/12/09 08:01:01;;;;;;;565.25;256.02;;;;;;;3.86;100.00;97773.66;5016393;28;20071;-54
2023/12/09 08:03:27;;;;;;;419.75;250.82;;;;;;;3.95;100.00;97772.09;5019574;28;20045;-54
2023/12/09 08:05:52;;;;;;;574.28;262.98;;;;;;;4.03;100.00;97778.28;5016127;28;20076;-54
2023/12/09 08:08:17;;;;;;;481.58;254.80;;;;;;;4.19;100.00;97774.28;5019136;28;20025;-55
2023/12/09 08:10:43;;;;;;;494.92;255.75;;;;;;;4.30;100.00;97774.47;5016392;28;20128;-55
2023/12/09 08:13:08;;;;;;;434.58;247.40;;;;;;;4.18;100.00;97777.69;5018602;28;20030;-55
2023/12/09 08:15:34;;;;;;;450.92;247.75;;;;;;;4.17;100.00;97771.69;5022334;28;20060;-56
2023/12/09 08:17:59;;;;;;;563.60;256.42;;;;;;;4.18;100.00;97775.13;5021388;28;20108;-55
2023/12/09 08:20:25;;;;;;;457.83;254.18;;;;;;;4.40;100.00;97763.53;5022051;28;20055;-55
2023/12/09 08:22:50;;;;;;;564.28;260.88;;;;;;;4.52;100.00;97772.28;5020375;28;20029;-55
2023/12/09 08:25:16;;;;;;;412.63;253.95;;;;;;;4.47;100.00;97772.22;5022656;28;20425;-56
2023/12/09 08:27:41;;;;;;;456.58;254.95;;;;;;;4.68;100.00;97769.13;5022500;28;20061;-56
2023/12/09 08:30:10;;;;;;;480.83;254.93;;;;;;;4.72;100.00;97771.75;5019882;28;20021;-56
2023/12/09 08:32:39;;;;;;;424.95;254.48;;;;;;;4.66;100.00;97772.53;5021638;28;20554;-57
2023/12/09 08:35:06;;;;;;;469.35;253.10;;;;;;;4.71;100.00;97770.88;5020493;28;20028;-56
2023/12/09 08:37:32;;;;;;;483.42;254.50;;;;;;;4.79;100.00;97765.88;5023190;28;20029;-56
2023/12/09 08:40:05;;;;;;;598.80;264.83;;;;;;;5.03;100.00;97754.22;5020421;28;20346;-55
2023/12/09 08:42:31;;;;;;;485.55;259.30;;;;;;;5.19;100.00;97752.72;5022435;28;20033;-54
2023/12/09 08:44:57;;;;;;;565.22;264.17;;;;;;;5.04;100.00;97756.81;5020931;28;20075;-54
2023/12/09 08:47:22;;;;;;;479.95;258.10;;;;;;;4.84;100.00;97761.66;5021843;28;20128;-56
2023/12/09 08:49:47;;;;;;;565.75;260.15;;;;;;;5.12;100.00;97768.97;5020404;28;20128;-54
2023/12/09 08:52:13;;;;;;;463.42;255.30;;;;;;;4.86;100.00;97774.56;5021730;28;20040;-56
2023/12/09 08:54:38;;;;;;;451.70;256.23;;;;;;;5.12;100.00;97766.38;5023716;28;20072;-57
2023/12/09 08:57:03;;;;;;;520.75;258.65;;;;;;;5.20;100.00;97760.47;5019899;28;20030;-56
2023/12/09 08:59:28;;;;;;;423.95;245.45;;;;;;;5.25;100.00;97763.13;5021933;28;20054;-56
2023/12/09 09:01:54;;;;;;;585.17;255.65;;;;;;;5.19;100.00;97760.44;5020511;28;20109;-56
2023/12/09 09:04:20;;;;;;;464.27;250.30;;;;;;;5.30;100.00;97752.88;5022091;28;20056;-55
2023/12/09 09:06:46;;;;;;;457.88;248.63;;;;;;;5.39;100.00;97755.59;5020278;28;20046;-56
2023/12/09 09:09:11;;;;;;;472.10;255.27;;;;;;;5.46;100.00;97735.91;5020839;28;20791;-57
2023/12/09 09:11:37;;;;;;;486.05;251.35;;;;;;;5.41;100.00;97734.94;5021310;28;20311;-53
2023/12/09 09:14:02;;;;;;;529.58;255.60;;;;;;;5.50;100.00;97732.53;5020979;28;20033;-54
2023/12/09 09:16:27;;;;;;;415.08;234.85;;;;;;;5.64;100.00;97739.56;5022324;28;20488;-57
2023/12/09 09:18:52;;;;;;;609.53;245.40;;;;;;;5.63;100.00;97732.66;5019188;28;20559;-54
2023/12/09 09:21:18;;;;;;;427.80;239.95;;;;;;;5.46;100.00;97741.06;5021365;28;20159;-54
2023/12/09 09:23:43;;;;;;;448.50;244.93;;;;;;;5.35;100.00;97743.50;5021434;28;20097;-53
2023/12/09 09:26:09;;;;;;;479.60;246.70;;;;;;;5.41;100.00;97737.53;5018030;28;20208;-55
2023/12/09 09:28:34;;;;;;;445.38;244.40;;;;;;;5.68;100.00;97742.19;5021185;28;20528;-55
2023/12/09 09:30:59;;;;;;;595.35;260.17;;;;;;;5.55;100.00;97733.44;5019188;28;20657;-55
2023/12/09 09:33:25;;;;;;;478.58;248.25;;;;;;;5.82;100.00;97739.78;5021960;28;20038;-55
2023/12/09 09:35:52;;;;;;;545.70;259.30;;;;;;;5.62;100.00;97723.19;5020524;28;20065;-53
2023/12/09 09:38:18;;;;;;;434.80;247.98;;;;;;;5.76;100.00;97728.50;5018815;28;20035;-53
2023/12/09 09:40:44;;;;;;;442.20;248.35;;;;;;;5.74;100.00;97718.16;5019321;28;20052;-55
2023/12/09 09:43:15;;;;;;;466.25;253.27;;;;;;;5.83;100.00;97707.94;5020309;28;20025;-55
2023/12/09 09:45:44;;;;;;;545.35;260.67;;;;;;;6.27;100.00;97699.81;5021204;28;20033;-54
2023/12/09 09:48:12;;;;;;;459.13;248.80;;;;;;;6.55;100.00;97698.34;5018521;28;20052;-55
2023/12/09 09:50:44;;;;;;;455.08;246.95;;;;;;;6.90;100.00;97694.25;5019724;28;20041;-56
2023/12/09 09:53:12;;;;;;;457.30;253.93;;;;;;;7.15;100.00;97687.53;5020250;28;20030;-55
2023/12/09 09:55:44;;;;;;;538.75;282.23;;;;;;;6.86;100.00;97684.75;5019026;28;20489;-55
2023/12/09 09:58:10;;;;;;;563.97;285.52;;;;;;;6.40;100.00;97681.00;5018921;28;20162;-54
2023/12/09 10:00:36;;;;;;;441.65;252.50;;;;;;;6.93;100.00;97658.09;5019323;28;20030;-55
2023/12/09 10:03:01;;;;;;;578.45;259.35;;;;;;;6.54;100.00;97662.16;5020390;28;20126;-55
2023/12/09 10:05:27;;;;;;;523.97;270.70;;;;;;;5.95;100.00;97662.47;5020594;28;20056;-55
2023/12/09 10:07:54;;;;;;;543.28;258.50;;;;;;;5.84;100.00;97665.81;5019837;28;20045;-55
2023/12/09 10:10:19;;;;;;;451.27;254.48;;;;;;;6.29;100.00;97652.50;5019043;28;20036;-55
2023/12/09 10:12:45;;;;;;;543.67;289.40;;;;;;;6.22;100.00;97653.28;5020742;28;20037;-58
2023/12/09 10:15:11;;;;;;;466.52;254.75;;;;;;;5.94;100.00;97640.94;5019590;28;20076;-55
2023/12/09 10:17:36;;;;;;;534.78;273.17;;;;;;;6.14;100.00;97642.00;5021130;28;20068;-54
2023/12/09 10:20:05;;;;;;;596.20;266.88;;;;;;;6.29;100.00;97642.16;5016561;28;20129;-55
2023/12/09 10:22:31;;;;;;;451.33;257.15;;;;;;;6.57;100.00;97621.69;5018732;28;20068;-54
2023/12/09 10:24:56;;;;;;;633.83;266.70;;;;;;;6.10;100.00;97628.22;5017847;28;20436;-54
2023/12/09 10:27:23;;;;;;;609.60;328.60;;;;;;;6.52;100.00;97625.97;5019366;28;20033;-55
2023/12/09 10:29:49;;;;;;;462.02;256.13;;;;;;;6.82;100.00;97611.50;5020038;28;20028;-55
2023/12/09 10:32:15;;;;;;;490.42;258.65;;;;;;;6.57;100.00;97616.50;5018106;28;20455;-55
2023/12/09 10:34:41;;;;;;;476.63;257.20;;;;;;;6.81;100.00;97625.28;5019593;28;20463;-54
2023/12/09 10:37:10;;;;;;;614.70;281.65;;;;;;;6.45;100.00;97619.00;5013469;28;20527;-55
2023/12/09 10:39:36;;;;;;;565.78;265.20;;;;;;;6.72;100.00;97625.25;5019024;28;20060;-54
2023/12/09 10:42:04;;;;;;;656.70;297.13;;;;;;;6.75;100.00;97617.47;5020611;28;20436;-56
2023/12/09 10:44:30;;;;;;;488.13;257.92;;;;;;;6.80;100.00;97617.53;5022378;28;20052;-55
2023/12/09 10:46:55;;;;;;;583.05;267.83;;;;;;;6.75;100.00;97612.31;5021057;28;20034;-54
2023/12/09 10:49:21;;;;;;;721.70;363.20;;;;;;;6.41;100.00;97614.66;5020556;28;20041;-54
2023/12/09 10:51:46;;;;;;;575.38;292.15;;;;;;;6.18;100.00;97594.72;5019358;28;20128;-56
2023/12/09 10:54:11;;;;;;;492.85;265.58;;;;;;;5.96;100.00;97604.81;5021189;28;20021;-54
2023/12/09 10:56:37;;;;;;;451.25;254.95;;;;;;;5.82;100.00;97615.00;5021717;28;20040;-55